High Island — WDG5547 — position and weather

sailwx.info

Track history (hours):
 
Tides and Currents Weather Stations Pressure Air Temp Water Temp Dewpoint Dewpoint Depression Visibility Wind Speed Wind Dir Waves Ship Positions

High Island

Owner: Higman Barge Lines, Inc, Orange, TX. More information available from US FCC via Universal Licensing System and Coast Guard Vessel Documentation Center.

Last reported at 2017-Dec-10 22:51 UTC. Time now 2017-Dec-11 05:32 UTC.
Position N 29°46' W 095°05'.

Length 24 m; draft 3 m.

Type: Towing. MMSI: 367547750.

Date/timePositionNaut miles runAvg speedWind from/ knotsBaromVisibWave heightAir tempDewpointWater temp
2017-Dec-10 22:51N 29°46' W 095°05'2 5.9
2017-Dec-10 22:30N 29°44' W 095°04'3 6.0
2017-Dec-10 22:00N 29°42' W 095°01'3 6.1
2017-Dec-10 21:30N 29°40' W 094°59'3 7.0
2017-Dec-10 21:01N 29°37' W 094°57'4 7.1
2017-Dec-10 20:31N 29°34' W 094°55'3 0.6
2017-Dec-10 16:22N 29°32' W 094°54'2 6.8
2017-Dec-10 16:00N 29°34' W 094°55'4 6.4
2017-Dec-10 15:28N 29°37' W 094°57'3 6.2
2017-Dec-10 14:56N 29°40' W 094°59'3 6.7
2017-Dec-10 14:31N 29°42' W 095°01'3 6.4
2017-Dec-10 14:00N 29°44' W 095°03'2 4.6
2017-Dec-10 13:29N 29°45' W 095°06'1 1.2
2017-Dec-10 12:42N 29°44' W 095°07'0 0.2
2017-Dec-10 12:27N 29°44' W 095°07'0 0.1
2017-Dec-10 05:27N 29°45' W 095°06'1 2.4
2017-Dec-10 05:00N 29°45' W 095°06'1 0.1
2017-Dec-09 14:04N 29°47' W 095°05'0 0.0
2017-Dec-09 13:58N 29°47' W 095°05'0 0.0
2017-Dec-09 13:14N 29°47' W 095°05'0 0.0
2017-Dec-09 12:52N 29°47' W 095°05'0 0.0
2017-Dec-09 12:04N 29°47' W 095°05'0 0.0
2017-Dec-09 08:49N 29°47' W 095°05'0 0.0
2017-Dec-09 08:25N 29°47' W 095°05'4 0.1
2017-Dec-08 01:34N 29°44' W 095°08'1 0.5
2017-Dec-08 00:02N 29°44' W 095°07'0 3.7
2017-Dec-08 00:00N 29°44' W 095°07'1 0.2
2017-Dec-07 18:41N 29°44' W 095°08'2 7.0
2017-Dec-07 18:22N 29°45' W 095°11'1 1.2
2017-Dec-07 17:47N 29°45' W 095°10'3 5.9
2017-Dec-07 17:20N 29°44' W 095°07'0 0.0
2017-Dec-07 12:52N 29°44' W 095°07'0 0.5
2017-Dec-07 12:12N 29°45' W 095°07'0 0.0
2017-Dec-07 11:50N 29°45' W 095°06'  
2017-Dec-03 15:45N 29°44' W 095°08'3 8.1
2017-Dec-03 15:23N 29°45' W 095°11'3 7.7
2017-Dec-03 14:59N 29°43' W 095°14'1 1.0
2017-Dec-03 14:22N 29°44' W 095°14'1 1.0
2017-Dec-03 13:34N 29°43' W 095°15'1 3.3
2017-Dec-03 13:14N 29°44' W 095°13'3 4.4
2017-Dec-03 12:28N 29°45' W 095°10'4 2.4
2017-Dec-03 10:56N 29°46' W 095°06'0 0.1
2017-Dec-03 10:21N 29°46' W 095°06'3 0.2
2017-Dec-02 19:35N 29°44' W 095°08'0 4.1
2017-Dec-02 19:30N 29°44' W 095°08'0 0.0
2017-Dec-02 18:57N 29°44' W 095°08'0 0.0
2017-Dec-02 18:30N 29°44' W 095°08'0 0.0
2017-Dec-02 17:59N 29°44' W 095°08'0 0.0
2017-Dec-02 17:25N 29°44' W 095°08'0 0.1
2017-Dec-02 17:00N 29°44' W 095°08'0 0.0
2017-Dec-02 16:31N 29°44' W 095°08'0 0.0
2017-Dec-02 16:01N 29°44' W 095°08'0 0.0
2017-Dec-02 15:30N 29°44' W 095°08'2 2.9
2017-Dec-02 14:41N 29°46' W 095°06'1 0.1
2017-Dec-01 20:49N 29°45' W 095°07'1 0.1
2017-Dec-01 02:59N 29°46' W 095°07'0 0.1
2017-Dec-01 02:30N 29°46' W 095°07'  
Track history (hours):
 
Tides and Currents Weather Stations Pressure Air Temp Water Temp Dewpoint Dewpoint Depression Visibility Wind Speed Wind Dir Waves Ship Positions

High Island

Owner: Higman Barge Lines, Inc, Orange, TX. More information available from US FCC via Universal Licensing System and Coast Guard Vessel Documentation Center.

Last reported at 2017-Dec-10 22:51 UTC. Time now 2017-Dec-11 05:32 UTC.
Position N 29°46' W 095°05'.

Length 24 m; draft 3 m.

Type: Towing. MMSI: 367547750.

Date/timePositionNaut miles runAvg speedWind from/ knotsBaromVisibWave heightAir tempDewpointWater temp
2017-Dec-10 22:51N 29°46' W 095°05'2 5.9
2017-Dec-10 22:30N 29°44' W 095°04'3 6.0
2017-Dec-10 22:00N 29°42' W 095°01'3 6.1
2017-Dec-10 21:30N 29°40' W 094°59'3 7.0
2017-Dec-10 21:01N 29°37' W 094°57'4 7.1
2017-Dec-10 20:31N 29°34' W 094°55'3 0.6
2017-Dec-10 16:22N 29°32' W 094°54'2 6.8
2017-Dec-10 16:00N 29°34' W 094°55'4 6.4
2017-Dec-10 15:28N 29°37' W 094°57'3 6.2
2017-Dec-10 14:56N 29°40' W 094°59'3 6.7
2017-Dec-10 14:31N 29°42' W 095°01'3 6.4
2017-Dec-10 14:00N 29°44' W 095°03'2 4.6
2017-Dec-10 13:29N 29°45' W 095°06'1 1.2
2017-Dec-10 12:42N 29°44' W 095°07'0 0.2
2017-Dec-10 12:27N 29°44' W 095°07'0 0.1
2017-Dec-10 05:27N 29°45' W 095°06'1 2.4
2017-Dec-10 05:00N 29°45' W 095°06'1 0.1
2017-Dec-09 14:04N 29°47' W 095°05'0 0.0
2017-Dec-09 13:58N 29°47' W 095°05'0 0.0
2017-Dec-09 13:14N 29°47' W 095°05'0 0.0
2017-Dec-09 12:52N 29°47' W 095°05'0 0.0
2017-Dec-09 12:04N 29°47' W 095°05'0 0.0
2017-Dec-09 08:49N 29°47' W 095°05'0 0.0
2017-Dec-09 08:25N 29°47' W 095°05'4 0.1
2017-Dec-08 01:34N 29°44' W 095°08'1 0.5
2017-Dec-08 00:02N 29°44' W 095°07'0 3.7
2017-Dec-08 00:00N 29°44' W 095°07'1 0.2
2017-Dec-07 18:41N 29°44' W 095°08'2 7.0
2017-Dec-07 18:22N 29°45' W 095°11'1 1.2
2017-Dec-07 17:47N 29°45' W 095°10'3 5.9
2017-Dec-07 17:20N 29°44' W 095°07'0 0.0
2017-Dec-07 12:52N 29°44' W 095°07'0 0.5
2017-Dec-07 12:12N 29°45' W 095°07'0 0.0
2017-Dec-07 11:50N 29°45' W 095°06'  
2017-Dec-03 15:45N 29°44' W 095°08'3 8.1
2017-Dec-03 15:23N 29°45' W 095°11'3 7.7
2017-Dec-03 14:59N 29°43' W 095°14'1 1.0
2017-Dec-03 14:22N 29°44' W 095°14'1 1.0
2017-Dec-03 13:34N 29°43' W 095°15'1 3.3
2017-Dec-03 13:14N 29°44' W 095°13'3 4.4
2017-Dec-03 12:28N 29°45' W 095°10'4 2.4
2017-Dec-03 10:56N 29°46' W 095°06'0 0.1
2017-Dec-03 10:21N 29°46' W 095°06'3 0.2
2017-Dec-02 19:35N 29°44' W 095°08'0 4.1
2017-Dec-02 19:30N 29°44' W 095°08'0 0.0
2017-Dec-02 18:57N 29°44' W 095°08'0 0.0
2017-Dec-02 18:30N 29°44' W 095°08'0 0.0
2017-Dec-02 17:59N 29°44' W 095°08'0 0.0
2017-Dec-02 17:25N 29°44' W 095°08'0 0.1
2017-Dec-02 17:00N 29°44' W 095°08'0 0.0
2017-Dec-02 16:31N 29°44' W 095°08'0 0.0
2017-Dec-02 16:01N 29°44' W 095°08'0 0.0
2017-Dec-02 15:30N 29°44' W 095°08'2 2.9
2017-Dec-02 14:41N 29°46' W 095°06'1 0.1
2017-Dec-01 20:49N 29°45' W 095°07'1 0.1
2017-Dec-01 02:59N 29°46' W 095°07'0 0.1
2017-Dec-01 02:30N 29°46' W 095°07'  

Dump ship's entire track history